Time;durP1;ratioP1;P1;durP2;ratioP2;P2;SDS_P1;SDS_P2;PMS_P1;PMS_P2;Temp;Humidity;BMP_temperature;BMP_pressure;BME280_temperature;BME280_humidity;BME280_pressure;Samples;Min_cycle;Max_cycle;Signal;HPM_P1;HPM_P2
2022/05/18 00:00:03;;;;;;;;;;;;;;;16.08;62.68;96955.97;5074341;28;20427;-71
2022/05/18 00:02:29;;;;;;;;;;;;;;;16.03;62.68;96946.91;5074524;28;19946;-71
2022/05/18 00:04:55;;;;;;;;;;;;;;;16.00;62.92;96947.38;5073643;28;19985;-71
2022/05/18 00:07:21;;;;;;;;;;;;;;;15.97;63.31;96947.06;5074241;28;20087;-70
2022/05/18 00:09:49;;;;;;;;;;;;;;;15.93;63.01;96952.03;5074463;28;19980;-70
2022/05/18 00:12:14;;;;;;;;;;;;;;;15.89;63.04;96964.13;5074099;28;19969;-71
2022/05/18 00:14:40;;;;;;;;;;;;;;;15.85;63.10;96963.00;5074101;28;19971;-71
2022/05/18 00:17:07;;;;;;;;;;;;;;;15.81;63.72;96967.16;5073279;28;20008;-72
2022/05/18 00:19:33;;;;;;;;;;;;;;;15.78;64.03;96963.16;5065410;28;19976;-71
2022/05/18 00:21:59;;;;;;;;;;;;;;;15.75;63.80;96957.56;5073925;28;19954;-71
2022/05/18 00:24:25;;;;;;;;;;;;;;;15.71;63.59;96954.53;5074060;28;19945;-71
2022/05/18 00:26:51;;;;;;;;;;;;;;;15.68;64.22;96968.22;5072550;28;19970;-71
2022/05/18 00:29:17;;;;;;;;;;;;;;;15.64;63.94;96967.09;5073712;28;19960;-71
2022/05/18 00:31:43;;;;;;;;;;;;;;;15.60;64.27;96966.78;5072591;28;20044;-71
2022/05/18 00:34:09;;;;;;;;;;;;;;;15.54;64.58;96965.09;5073612;28;20038;-71
2022/05/18 00:36:35;;;;;;;;;;;;;;;15.51;64.28;96962.91;5073694;28;19956;-71
2022/05/18 00:39:02;;;;;;;;;;;;;;;15.47;64.49;96964.41;5074110;28;20005;-71
2022/05/18 00:41:27;;;;;;;;;;;;;;;15.45;64.64;96958.56;5073460;28;19956;-70
2022/05/18 00:43:55;;;;;;;;;;;;;;;15.42;64.68;96970.41;5072863;28;19958;-72
2022/05/18 00:46:21;;;;;;;;;;;;;;;15.39;65.19;96967.41;5068028;28;19960;-71
2022/05/18 00:48:46;;;;;;;;;;;;;;;15.37;65.30;96969.50;5073359;28;20342;-71
2022/05/18 00:51:19;;;;;;;;;;;;;;;15.34;65.72;96965.50;5073405;28;19955;-70
2022/05/18 00:53:48;;;;;;;;;;;;;;;15.30;65.07;96953.78;5064479;28;19959;-71
2022/05/18 00:56:17;;;;;;;;;;;;;;;15.28;65.48;96955.06;5073746;28;19977;-70
2022/05/18 00:58:43;;;;;;;;;;;;;;;15.27;65.31;96951.63;5065992;28;19957;-71
2022/05/18 01:01:09;;;;;;;;;;;;;;;15.23;65.23;96951.28;5068048;28;19957;-71
2022/05/18 01:03:37;;;;;;;;;;;;;;;15.22;65.79;96954.16;5073684;28;20303;-70
2022/05/18 01:06:22;;;;;;;;;;;;;;;15.17;65.51;96957.50;5072863;28;19983;-70
2022/05/18 01:08:56;;;;;;;;;;;;;;;15.13;66.01;96948.44;5073675;28;20443;-70
2022/05/18 01:11:21;;;;;;;;;;;;;;;15.10;66.10;96950.72;5073453;28;19945;-71
2022/05/18 01:13:48;;;;;;;;;;;;;;;15.08;65.86;96948.34;5072038;28;20371;-71
2022/05/18 01:16:14;;;;;;;;;;;;;;;15.06;66.27;96953.06;5073249;28;19970;-71
2022/05/18 01:18:40;;;;;;;;;;;;;;;15.04;66.11;96951.69;5073309;28;19967;-71
2022/05/18 01:21:06;;;;;;;;;;;;;;;15.00;66.61;96957.44;5073652;28;20360;-71
2022/05/18 01:23:39;;;;;;;;;;;;;;;14.98;66.42;96956.06;5073347;28;20041;-71
2022/05/18 01:26:16;;;;;;;;;;;;;;;14.94;66.53;96965.50;5064755;28;19962;-71
2022/05/18 01:28:44;;;;;;;;;;;;;;;14.92;67.14;96975.47;5073237;28;19955;-71
2022/05/18 01:31:10;;;;;;;;;;;;;;;14.87;66.92;96972.75;5073314;28;19948;-71
2022/05/18 01:33:36;;;;;;;;;;;;;;;14.84;66.48;96966.06;5073113;28;20401;-71
2022/05/18 01:36:03;;;;;;;;;;;;;;;14.83;66.91;96980.31;5073002;28;19952;-71
2022/05/18 01:38:29;;;;;;;;;;;;;;;14.80;66.83;96976.31;5073273;28;19961;-71
2022/05/18 01:41:09;;;;;;;;;;;;;;;14.76;67.05;96972.53;5072017;28;19955;-71
2022/05/18 01:43:37;;;;;;;;;;;;;;;14.73;67.12;96967.69;5068902;28;19952;-70
2022/05/18 01:46:04;;;;;;;;;;;;;;;14.70;66.95;96984.00;5077362;28;19951;-71
2022/05/18 01:48:40;;;;;;;;;;;;;;;14.67;67.36;96976.53;5077138;28;19958;-71
2022/05/18 01:51:08;;;;;;;;;;;;;;;14.66;67.89;96982.03;5064390;28;19974;-71
2022/05/18 01:53:34;;;;;;;;;;;;;;;14.64;67.59;96986.78;5076804;28;19977;-71
2022/05/18 01:56:00;;;;;;;;;;;;;;;14.59;67.39;96974.25;5067135;28;20398;-71
2022/05/18 01:58:26;;;;;;;;;;;;;;;14.56;67.90;96980.00;5077127;28;19959;-71
2022/05/18 02:00:52;;;;;;;;;;;;;;;14.53;68.28;96970.66;5076711;28;20435;-71
2022/05/18 02:03:19;;;;;;;;;;;;;;;14.52;68.40;96981.44;5069755;28;19960;-71
2022/05/18 02:06:12;;;;;;;;;;;;;;;14.46;68.14;96980.53;5074670;28;20352;-70
2022/05/18 02:08:37;;;;;;;;;;;;;;;14.43;67.84;96973.06;5076553;28;19968;-70
2022/05/18 02:11:03;;;;;;;;;;;;;;;14.44;67.87;96973.88;5076489;28;19958;-71
2022/05/18 02:13:29;;;;;;;;;;;;;;;14.41;68.50;96977.78;5076535;28;19975;-71
2022/05/18 02:15:55;;;;;;;;;;;;;;;14.37;68.63;96982.69;5068819;28;20384;-71
2022/05/18 02:18:21;;;;;;;;;;;;;;;14.36;68.34;96981.13;5075194;28;20020;-70
2022/05/18 02:20:47;;;;;;;;;;;;;;;14.34;68.35;96988.44;5076347;28;20081;-71
2022/05/18 02:23:13;;;;;;;;;;;;;;;14.31;68.87;96980.97;5076675;28;19953;-71
2022/05/18 02:25:39;;;;;;;;;;;;;;;14.28;68.72;96980.63;5073740;28;20005;-71
2022/05/18 02:28:05;;;;;;;;;;;;;;;14.26;68.60;96986.16;5076460;28;20052;-71
2022/05/18 02:30:32;;;;;;;;;;;;;;;14.23;68.31;96976.03;5076340;28;19946;-71
2022/05/18 02:32:58;;;;;;;;;;;;;;;14.21;68.44;96976.28;5065502;28;19975;-70
2022/05/18 02:35:24;;;;;;;;;;;;;;;14.18;68.38;96979.34;5076418;28;19968;-71
2022/05/18 02:37:50;;;;;;;;;;;;;;;14.17;68.85;96993.59;5076025;28;20092;-71
2022/05/18 02:40:16;;;;;;;;;;;;;;;14.14;68.98;96993.22;5069456;28;19996;-71
2022/05/18 02:42:41;;;;;;;;;;;;;;;14.12;69.19;96995.28;5071265;28;19962;-71
2022/05/18 02:45:08;;;;;;;;;;;;;;;14.09;69.02;96999.19;5076233;28;20403;-71
2022/05/18 02:47:34;;;;;;;;;;;;;;;14.07;69.01;97000.44;5075523;28;19962;-73
2022/05/18 02:50:00;;;;;;;;;;;;;;;14.04;69.07;97006.97;5074674;28;20016;-71
2022/05/18 02:52:25;;;;;;;;;;;;;;;14.00;69.05;97006.59;5076020;28;20017;-70
2022/05/18 02:57:36;;;;;;;;;;;;;;;13.93;69.45;96999.84;5060896;28;19979;-71
2022/05/18 03:00:03;;;;;;;;;;;;;;;13.91;69.55;97005.31;5075645;28;20088;-71
2022/05/18 03:02:29;;;;;;;;;;;;;;;13.88;69.39;96999.69;5073905;28;19953;-71
2022/05/18 03:04:55;;;;;;;;;;;;;;;13.87;69.56;97006.00;5066033;28;20016;-71
2022/05/18 03:07:20;;;;;;;;;;;;;;;13.84;69.65;97002.00;5075519;28;19977;-71
2022/05/18 03:09:46;;;;;;;;;;;;;;;13.81;69.56;96999.78;5075449;28;19967;-71
2022/05/18 03:12:12;;;;;;;;;;;;;;;13.79;69.85;97001.84;5075495;28;20011;-71
2022/05/18 03:14:38;;;;;;;;;;;;;;;13.78;69.69;97002.88;5075424;28;20019;-70
2022/05/18 03:17:04;;;;;;;;;;;;;;;13.75;69.86;96993.59;5067536;28;20008;-70
2022/05/18 03:19:30;;;;;;;;;;;;;;;13.73;70.39;96998.28;5075429;28;20335;-70
2022/05/18 03:24:40;;;;;;;;;;;;;;;13.70;70.27;97005.84;5075183;28;19959;-71
2022/05/18 03:27:06;;;;;;;;;;;;;;;13.69;70.41;97001.56;5073880;28;19978;-71
2022/05/18 03:29:32;;;;;;;;;;;;;;;13.67;70.34;97008.91;5075269;28;19956;-71
2022/05/18 03:31:58;;;;;;;;;;;;;;;13.65;70.29;97014.41;5073858;28;19973;-71
2022/05/18 03:34:24;;;;;;;;;;;;;;;13.62;70.86;97020.13;5075237;28;19971;-71
2022/05/18 03:36:50;;;;;;;;;;;;;;;13.59;70.76;97016.09;5074626;28;19963;-71
2022/05/18 03:39:17;;;;;;;;;;;;;;;13.58;70.82;97024.22;5074610;28;19966;-71
2022/05/18 03:41:44;;;;;;;;;;;;;;;13.57;70.81;97017.38;5062687;28;19963;-71
2022/05/18 03:44:10;;;;;;;;;;;;;;;13.56;71.06;97024.44;5072579;28;19974;-71
2022/05/18 03:46:36;;;;;;;;;;;;;;;13.54;70.81;97029.16;5075198;28;20370;-70
2022/05/18 03:49:03;;;;;;;;;;;;;;;13.54;70.70;97029.16;5073438;28;19953;-71
2022/05/18 03:51:30;;;;;;;;;;;;;;;13.51;71.01;97020.88;5069405;28;19952;-71
2022/05/18 03:53:55;;;;;;;;;;;;;;;13.52;71.21;97022.47;5074774;28;19965;-71
2022/05/18 03:56:21;;;;;;;;;;;;;;;13.51;71.39;97020.88;5068106;28;20012;-72
2022/05/18 03:59:07;;;;;;;;;;;;;;;13.50;71.64;97025.34;5056978;28;19964;-71
2022/05/18 04:01:33;;;;;;;;;;;;;;;13.49;71.68;97031.63;5074480;28;20056;-71
2022/05/18 04:03:59;;;;;;;;;;;;;;;13.48;71.58;97037.94;5074527;28;20045;-71
2022/05/18 04:06:25;;;;;;;;;;;;;;;13.48;71.66;97037.13;5074131;28;19977;-71
2022/05/18 04:08:52;;;;;;;;;;;;;;;13.48;71.24;97037.94;5073489;28;19972;-71
2022/05/18 04:11:18;;;;;;;;;;;;;;;13.49;71.65;97038.75;5072721;28;19954;-71
2022/05/18 04:13:44;;;;;;;;;;;;;;;13.48;72.03;97051.13;5073945;28;19976;-70
2022/05/18 04:16:10;;;;;;;;;;;;;;;13.49;71.80;97047.44;5074211;28;19968;-70
2022/05/18 04:18:36;;;;;;;;;;;;;;;13.50;71.62;97042.97;5074210;28;20329;-71
2022/05/18 04:21:02;;;;;;;;;;;;;;;13.50;71.53;97041.16;5068827;28;20613;-71
2022/05/18 04:23:29;;;;;;;;;;;;;;;13.53;71.98;97040.72;5073333;28;20433;-70
2022/05/18 04:25:56;;;;;;;;;;;;;;;13.59;72.23;97041.66;5073987;28;19952;-71
2022/05/18 04:28:22;;;;;;;;;;;;;;;13.65;72.32;97040.78;5074119;28;20333;-71
2022/05/18 04:30:48;;;;;;;;;;;;;;;13.73;71.90;97042.28;5072509;28;19968;-70
2022/05/18 04:33:15;;;;;;;;;;;;;;;13.82;71.95;97046.22;5073851;28;20453;-71
2022/05/18 04:35:41;;;;;;;;;;;;;;;13.95;72.07;97042.59;5073686;28;19961;-70
2022/05/18 04:38:08;;;;;;;;;;;;;;;14.07;71.34;97043.44;5073874;28;19955;-71
2022/05/18 04:40:34;;;;;;;;;;;;;;;14.25;71.40;97054.94;5074178;28;19962;-71
2022/05/18 04:43:00;;;;;;;;;;;;;;;14.45;71.21;97054.63;5072780;28;19952;-71
2022/05/18 04:45:26;;;;;;;;;;;;;;;14.67;70.83;97057.56;5074065;28;19970;-70
2022/05/18 04:47:52;;;;;;;;;;;;;;;14.91;70.65;97056.56;5073606;28;19953;-71
2022/05/18 04:50:19;;;;;;;;;;;;;;;15.18;69.78;97053.41;5074203;28;20040;-71
2022/05/18 04:52:45;;;;;;;;;;;;;;;15.48;69.29;97055.09;5073553;28;19972;-72
2022/05/18 04:55:11;;;;;;;;;;;;;;;15.79;68.55;97048.56;5073887;28;19964;-71
2022/05/18 04:57:37;;;;;;;;;;;;;;;16.11;67.87;97061.34;5072228;28;19984;-71
2022/05/18 05:00:05;;;;;;;;;;;;;;;16.40;67.11;97040.91;5064768;28;19986;-71
2022/05/18 05:02:33;;;;;;;;;;;;;;;16.73;66.25;97044.59;5070751;28;19962;-71
2022/05/18 05:04:59;;;;;;;;;;;;;;;16.99;65.29;97046.59;5073661;28;19953;-71
2022/05/18 05:07:25;;;;;;;;;;;;;;;17.21;64.12;97036.00;5073634;28;20017;-71
2022/05/18 05:09:51;;;;;;;;;;;;;;;17.46;63.48;97037.38;5073652;28;19963;-70
2022/05/18 05:12:18;;;;;;;;;;;;;;;17.69;63.19;97041.63;5073252;28;20326;-71
2022/05/18 05:14:44;;;;;;;;;;;;;;;17.95;61.81;97026.78;5071827;28;19968;-71
2022/05/18 05:17:10;;;;;;;;;;;;;;;18.18;61.47;97025.66;5073475;28;19974;-71
2022/05/18 05:19:36;;;;;;;;;;;;;;;18.37;61.14;97020.00;5073062;28;20013;-71
2022/05/18 05:22:03;;;;;;;;;;;;;;;18.55;60.50;97022.25;5073186;28;20017;-72
2022/05/18 05:24:29;;;;;;;;;;;;;;;18.72;59.73;97010.69;5058873;28;19974;-71
2022/05/18 05:26:55;;;;;;;;;;;;;;;18.96;59.61;97013.78;5071958;28;19970;-71
2022/05/18 05:29:21;;;;;;;;;;;;;;;19.14;58.17;96996.59;5073068;28;19953;-73
2022/05/18 05:31:47;;;;;;;;;;;;;;;19.31;57.94;96999.84;5071652;28;19958;-71
2022/05/18 05:34:13;;;;;;;;;;;;;;;19.58;58.21;97001.53;5073096;28;19984;-72
2022/05/18 05:36:39;;;;;;;;;;;;;;;19.83;57.48;97000.84;5073169;28;19972;-72
2022/05/18 05:39:05;;;;;;;;;;;;;;;20.09;56.67;96988.34;5071974;28;20429;-72
2022/05/18 05:41:31;;;;;;;;;;;;;;;20.36;55.48;96973.97;5072991;28;19962;-72
2022/05/18 05:43:57;;;;;;;;;;;;;;;20.57;55.96;96983.53;5073177;28;19956;-72
2022/05/18 05:46:23;;;;;;;;;;;;;;;20.74;54.50;96958.47;5073129;28;20297;-72
2022/05/18 05:48:49;;;;;;;;;;;;;;;20.80;54.17;96962.72;5070485;28;19961;-72
2022/05/18 05:51:16;;;;;;;;;;;;;;;20.98;53.51;96951.50;5073302;28;20036;-72
2022/05/18 05:53:42;;;;;;;;;;;;;;;21.02;53.60;96957.06;5071775;28;19971;-72
2022/05/18 05:56:08;;;;;;;;;;;;;;;21.06;53.68;96958.94;5071710;28;19962;-72
2022/05/18 05:58:36;;;;;;;;;;;;;;;21.27;52.89;96948.16;5062405;28;20452;-72
2022/05/18 06:01:03;;;;;;;;;;;;;;;21.45;52.35;96944.09;5072889;28;19960;-72
2022/05/18 06:03:28;;;;;;;;;;;;;;;21.62;53.32;96963.22;5068110;28;19957;-72
2022/05/18 06:05:56;;;;;;;;;;;;;;;21.85;51.78;96945.72;5057796;28;20039;-72
2022/05/18 06:08:23;;;;;;;;;;;;;;;21.98;50.53;96930.13;5072997;28;19955;-72
2022/05/18 06:10:49;;;;;;;;;;;;;;;22.04;49.94;96929.81;5072897;28;20079;-72
2022/05/18 06:13:15;;;;;;;;;;;;;;;22.12;49.25;96928.41;5072522;28;19973;-72
2022/05/18 06:15:41;;;;;;;;;;;;;;;22.02;49.16;96928.50;5064764;28;20041;-72
2022/05/18 06:18:07;;;;;;;;;;;;;;;21.94;48.80;96945.13;5070073;28;19957;-72
2022/05/18 06:20:33;;;;;;;;;;;;;;;21.88;49.74;96971.03;5064398;28;19953;-73
2022/05/18 06:23:02;;;;;;;;;;;;;;;21.87;49.07;96972.13;5070799;28;19970;-72
2022/05/18 06:25:28;;;;;;;;;;;;;;;21.93;50.22;96988.94;5062135;28;19961;-72
2022/05/18 06:27:53;;;;;;;;;;;;;;;22.06;50.26;96986.41;5072757;28;19964;-73
2022/05/18 06:30:19;;;;;;;;;;;;;;;22.33;50.10;96990.53;5062079;28;20014;-72
2022/05/18 06:32:45;;;;;;;;;;;;;;;22.64;49.72;96988.38;5076127;28;19974;-73
2022/05/18 06:35:11;;;;;;;;;;;;;;;22.89;49.43;96989.19;5076134;28;19957;-73
2022/05/18 06:37:37;;;;;;;;;;;;;;;23.01;48.47;96981.59;5070140;28;19987;-72
2022/05/18 06:40:04;;;;;;;;;;;;;;;22.85;48.17;96986.28;5069217;28;19964;-73
2022/05/18 06:42:30;;;;;;;;;;;;;;;22.83;49.27;96995.69;5076083;28;19955;-73
2022/05/18 06:44:56;;;;;;;;;;;;;;;22.94;49.62;96997.16;5076111;28;20050;-73
2022/05/18 06:47:22;;;;;;;;;;;;;;;23.03;48.83;96984.78;5076040;28;19954;-72
2022/05/18 06:49:48;;;;;;;;;;;;;;;23.05;48.53;96990.63;5075902;28;20310;-72
2022/05/18 06:52:14;;;;;;;;;;;;;;;22.93;46.25;96976.03;5068556;28;19960;-73
2022/05/18 06:54:40;;;;;;;;;;;;;;;22.68;47.04;96981.38;5069446;28;19982;-72
2022/05/18 06:57:06;;;;;;;;;;;;;;;22.57;47.10;96993.22;5067834;28;19965;-73
2022/05/18 06:59:32;;;;;;;;;;;;;;;22.45;47.03;96987.50;5070655;28;19957;-73
2022/05/18 07:01:58;;;;;;;;;;;;;;;22.57;48.56;97009.28;5075114;28;19956;-72
2022/05/18 07:04:24;;;;;;;;;;;;;;;22.80;48.40;97001.59;5075429;28;19968;-72
2022/05/18 07:06:50;;;;;;;;;;;;;;;22.96;47.44;96988.84;5072555;28;19982;-72
2022/05/18 07:09:18;;;;;;;;;;;;;;;23.16;47.00;96991.34;5069451;28;19954;-73
2022/05/18 07:11:46;;;;;;;;;;;;;;;23.34;46.92;96975.59;5058061;28;19965;-72
2022/05/18 07:14:12;;;;;;;;;;;;;;;23.52;46.34;96974.84;5064569;28;19979;-73
2022/05/18 07:16:40;;;;;;;;;;;;;;;23.62;46.64;96985.41;5075667;28;19959;-73
2022/05/18 07:19:06;;;;;;;;;;;;;;;23.73;45.86;96977.22;5075125;28;20461;-73
2022/05/18 07:21:32;;;;;;;;;;;;;;;23.77;45.13;96964.84;5075397;28;19960;-73
2022/05/18 07:23:58;;;;;;;;;;;;;;;;;;5075253;28;19974;-73
2022/05/18 07:26:25;;;;;;;;;;;;;;;23.88;45.08;96972.47;5077703;28;19957;-73
2022/05/18 07:28:51;;;;;;;;;;;;;;;24.00;44.93;96974.72;5075073;28;19970;-72
2022/05/18 07:32:08;;;;;;;;;;;;;;;23.95;44.01;96965.94;5074407;28;20411;-73
2022/05/18 07:34:19;;;;;;;;;;;;;;;23.89;45.66;96990.13;5062883;28;19975;-73
2022/05/18 07:36:45;;;;;;;;;;;;;;;23.85;45.07;96981.06;5067893;28;19958;-73
2022/05/18 07:39:11;;;;;;;;;;;;;;;23.79;45.30;96990.28;5072779;28;20403;-72
2022/05/18 07:41:38;;;;;;;;;;;;;;;23.69;44.55;96977.81;5074609;28;19968;-73
2022/05/18 07:44:04;;;;;;;;;;;;;;;23.73;45.95;96990.59;5074843;28;19963;-72
2022/05/18 07:46:30;;;;;;;;;;;;;;;23.86;46.31;96992.59;5071969;28;19969;-72
2022/05/18 07:48:56;;;;;;;;;;;;;;;23.88;43.98;96975.16;5067948;28;19995;-72
2022/05/18 07:51:22;;;;;;;;;;;;;;;23.79;44.86;96981.44;5073022;28;19955;-72
2022/05/18 07:53:47;;;;;;;;;;;;;;;23.88;45.17;96995.78;5072330;28;20002;-72
2022/05/18 07:56:14;;;;;;;;;;;;;;;24.02;45.36;96991.28;5071285;28;19990;-72
2022/05/18 07:58:39;;;;;;;;;;;;;;;24.20;45.21;96995.03;5073024;28;19964;-72
2022/05/18 08:01:08;;;;;;;;;;;;;;;24.35;44.83;96975.22;5072580;28;19957;-73
2022/05/18 08:03:34;;;;;;;;;;;;;;;24.43;44.28;96974.53;5072897;28;19968;-72
2022/05/18 08:06:01;;;;;;;;;;;;;;;24.49;43.56;96980.66;5071397;28;19985;-71
2022/05/18 08:08:27;;;;;;;;;;;;;;;24.37;42.79;97010.56;5074372;28;19965;-73
2022/05/18 08:16:24;;;;;;;;;;;;;;;24.40;44.53;97026.06;5066021;28;19955;-73
2022/05/18 08:18:50;;;;;;;;;;;;;;;24.59;45.08;97047.53;5074102;28;19952;-73
2022/05/18 08:21:17;;;;;;;;;;;;;;;24.53;42.25;97013.84;5072470;28;20015;-71
2022/05/18 08:23:43;;;;;;;;;;;;;;;24.54;44.13;97025.34;5065538;28;19957;-73
2022/05/18 08:26:09;;;;;;;;;;;;;;;24.55;43.90;97027.75;5074097;28;19952;-72
2022/05/18 08:28:35;;;;;;;;;;;;;;;24.63;43.50;97021.72;5072859;28;19973;-72
2022/05/18 08:31:01;;;;;;;;;;;;;;;24.74;44.32;97030.38;5073858;28;19955;-73
2022/05/18 08:33:32;;;;;;;;;;;;;;;24.96;44.06;97029.69;5074015;28;19967;-72
2022/05/18 08:35:58;;;;;;;;;;;;;;;25.07;43.10;97017.69;5069463;28;19963;-72
2022/05/18 08:38:25;;;;;;;;;;;;;;;25.09;43.28;97020.06;5073874;28;19953;-73
2022/05/18 08:40:51;;;;;;;;;;;;;;;24.97;43.05;97030.47;5066575;28;19962;-72
2022/05/18 08:43:23;;;;;;;;;;;;;;;24.92;42.59;97032.19;5073891;28;19953;-72
2022/05/18 08:46:01;;;;;;;;;;;;;;;24.96;43.10;97023.53;5073728;28;19957;-72
2022/05/18 08:48:30;;;;;;;;;;;;;;;24.99;43.28;97031.81;5073985;28;19956;-72
2022/05/18 08:51:00;;;;;;;;;;;;;;;25.02;42.60;97030.41;5073665;28;20428;-72
2022/05/18 08:53:28;;;;;;;;;;;;;;;25.01;42.69;97029.63;5073152;28;19968;-72
2022/05/18 08:56:01;;;;;;;;;;;;;;;25.00;42.69;97049.47;5071645;28;19976;-73
2022/05/18 08:58:30;;;;;;;;;;;;;;;24.96;42.27;97045.00;5066444;28;19957;-73
2022/05/18 09:01:01;;;;;;;;;;;;;;;24.94;40.65;97041.81;5070970;28;19951;-71
2022/05/18 09:04:01;;;;;;;;;;;;;;;24.98;40.96;97040.13;5031382;28;19963;-72
2022/05/18 09:06:31;;;;;;;;;;;;;;;24.87;41.12;97037.63;5065321;28;19982;-73
2022/05/18 09:11:46;;;;;;;;;;;;;;;24.74;40.46;97042.97;5067393;28;20049;-72
2022/05/18 09:14:17;;;;;;;;;;;;;;;24.90;41.13;97050.47;5064223;28;19968;-72
2022/05/18 09:16:46;;;;;;;;;;;;;;;25.07;41.40;97051.75;5072336;28;19962;-72
2022/05/18 09:19:17;;;;;;;;;;;;;;;25.15;41.32;97048.41;5072452;28;19959;-73
2022/05/18 09:21:59;;;;;;;;;;;;;;;25.16;38.86;97041.13;5058035;28;19946;-72
2022/05/18 09:24:51;;;;;;;;;;;;;;;25.17;38.96;97038.16;5073253;28;19967;-73
2022/05/18 09:27:36;;;;;;;;;;;;;;;25.18;36.51;97030.91;5058398;28;19964;-73
2022/05/18 09:30:22;;;;;;;;;;;;;;;25.26;39.26;97049.84;5070488;28;19961;-74
2022/05/18 09:32:48;;;;;;;;;;;;;;;25.40;37.63;97032.94;5073097;28;19962;-73
2022/05/18 09:35:26;;;;;;;;;;;;;;;25.32;37.09;97039.78;5073009;28;19984;-74
2022/05/18 09:37:59;;;;;;;;;;;;;;;25.43;38.92;97045.75;5073345;28;19957;-73
2022/05/18 09:40:28;;;;;;;;;;;;;;;25.52;38.40;97044.75;5073242;28;19947;-72
2022/05/18 09:42:53;;;;;;;;;;;;;;;25.57;37.75;97043.06;5072833;28;19955;-72
2022/05/18 09:45:22;;;;;;;;;;;;;;;25.68;36.96;97029.13;5073060;28;19984;-73
2022/05/18 09:47:53;;;;;;;;;;;;;;;25.76;37.54;97038.34;5067539;28;19957;-72
2022/05/18 09:50:19;;;;;;;;;;;;;;;25.85;36.09;97022.28;5068243;28;19945;-72
2022/05/18 09:53:12;;;;;;;;;;;;;;;26.01;36.90;97018.19;5056950;28;19967;-72
2022/05/18 09:55:38;;;;;;;;;;;;;;;26.11;35.42;97025.25;5073208;28;19970;-72
2022/05/18 09:58:18;;;;;;;;;;;;;;;26.04;36.46;97020.28;5072989;28;19955;-72
2022/05/18 10:00:44;;;;;;;;;;;;;;;26.01;36.45;97020.88;5057870;28;19968;-73
2022/05/18 10:08:54;;;;;;;;;;;;;;;26.16;33.19;96994.75;5066388;28;19965;-73
2022/05/18 10:11:31;;;;;;;;;;;;;;;26.21;36.04;97010.78;5076818;28;19965;-72
2022/05/18 10:14:24;;;;;;;;;;;;;;;26.37;34.59;97000.44;5077188;28;19968;-72
2022/05/18 10:17:34;;;;;;;;;;;;;;;26.52;34.90;96998.16;5046403;28;19956;-72
2022/05/18 10:20:18;;;;;;;;;;;;;;;26.57;34.79;96994.59;5072732;28;19950;-77
2022/05/18 10:22:45;;;;;;;;;;;;;;;26.69;33.58;96992.13;5066339;28;20351;-73
2022/05/18 10:25:13;;;;;;;;;;;;;;;26.73;33.86;97001.16;5076401;28;19976;-72
2022/05/18 10:27:41;;;;;;;;;;;;;;;26.90;33.89;97000.44;5069754;28;19962;-72
2022/05/18 10:30:16;;;;;;;;;;;;;;;26.97;33.72;96997.31;5077454;28;19957;-72
2022/05/18 10:32:51;;;;;;;;;;;;;;;27.05;33.89;96996.53;5076574;28;19944;-72
2022/05/18 10:35:53;;;;;;;;;;;;;;;27.19;33.36;96985.66;5067530;28;19966;-73
2022/05/18 10:38:21;;;;;;;;;;;;;;;27.27;32.48;96984.91;5053799;28;19963;-73
2022/05/18 10:40:48;;;;;;;;;;;;;;;27.29;34.85;97003.47;5063739;28;19950;-73
2022/05/18 10:43:29;;;;;;;;;;;;;;;27.39;34.21;96992.41;5076244;28;20314;-72
2022/05/18 10:45:57;;;;;;;;;;;;;;;27.38;32.30;96981.94;5075868;28;20413;-72
2022/05/18 10:48:24;;;;;;;;;;;;;;;27.27;33.96;96994.91;5073919;28;19959;-72
2022/05/18 10:50:58;;;;;;;;;;;;;;;27.43;34.00;96995.25;5073664;28;19952;-73
2022/05/18 10:53:29;;;;;;;;;;;;;;;27.65;34.80;96999.72;5067525;28;19953;-73
2022/05/18 10:56:27;;;;;;;;;;;;;;;27.73;31.41;96983.56;5027367;28;20051;-73
2022/05/18 10:59:12;;;;;;;;;;;;;;;27.73;31.04;96977.38;5075771;28;19962;-73
2022/05/18 11:01:42;;;;;;;;;;;;;;;27.65;31.84;96989.72;5075733;28;19956;-73
2022/05/18 11:04:14;;;;;;;;;;;;;;;27.61;33.18;96985.28;5076243;28;19960;-74
2022/05/18 11:06:41;;;;;;;;;;;;;;;27.81;33.79;96987.38;5074402;28;19991;-73
2022/05/18 11:09:13;;;;;;;;;;;;;;;28.06;31.65;96977.75;5066506;28;19956;-72
2022/05/18 11:11:42;;;;;;;;;;;;;;;28.00;31.16;96973.63;5075783;28;19955;-72
2022/05/18 11:14:08;;;;;;;;;;;;;;;27.71;32.31;96976.91;5067206;28;19976;-72
2022/05/18 11:16:46;;;;;;;;;;;;;;;27.80;32.84;96985.00;5071060;28;19963;-72
2022/05/18 11:19:12;;;;;;;;;;;;;;;27.66;32.11;96974.38;5075393;28;19957;-72
2022/05/18 11:21:48;;;;;;;;;;;;;;;27.69;32.74;96976.44;5075383;28;20312;-72
2022/05/18 11:24:14;;;;;;;;;;;;;;;27.70;31.81;96975.34;5075675;28;19954;-72
2022/05/18 11:26:43;;;;;;;;;;;;;;;27.54;30.62;96975.00;5073524;28;19959;-72
2022/05/18 11:29:32;;;;;;;;;;;;;;;27.63;32.26;96967.69;5070830;28;19959;-72
2022/05/18 11:32:19;;;;;;;;;;;;;;;27.69;32.40;96968.34;5070328;28;19966;-72
2022/05/18 11:34:48;;;;;;;;;;;;;;;27.90;32.36;96968.53;5065835;28;19972;-72
2022/05/18 11:37:33;;;;;;;;;;;;;;;28.00;31.04;96960.13;5075174;28;20408;-72
2022/05/18 11:40:09;;;;;;;;;;;;;;;28.04;30.54;96950.31;5075194;28;20342;-72
2022/05/18 11:42:53;;;;;;;;;;;;;;;27.95;31.07;96960.31;5073944;28;19979;-70
2022/05/18 11:45:38;;;;;;;;;;;;;;;28.00;30.89;96959.34;5074756;28;19946;-69
2022/05/18 11:48:22;;;;;;;;;;;;;;;28.13;31.95;96958.38;5070835;28;19955;-69
2022/05/18 11:50:51;;;;;;;;;;;;;;;28.21;30.58;96943.31;5067798;28;19950;-71
2022/05/18 11:53:23;;;;;;;;;;;;;;;28.34;30.71;96950.41;5072386;28;19952;-71
2022/05/18 11:56:07;;;;;;;;;;;;;;;28.52;30.73;96948.50;5074909;28;20414;-70
2022/05/18 11:58:49;;;;;;;;;;;;;;;28.73;30.30;96940.47;5074607;28;19954;-70
2022/05/18 12:01:33;;;;;;;;;;;;;;;28.86;29.80;96941.38;5067259;28;19966;-72
2022/05/18 12:03:59;;;;;;;;;;;;;;;28.79;30.83;96950.00;5057160;28;20404;-72
2022/05/18 12:06:44;;;;;;;;;;;;;;;28.95;30.80;96940.19;5067969;28;19985;-72
2022/05/18 12:09:13;;;;;;;;;;;;;;;28.86;30.40;96942.16;5074370;28;19964;-72
2022/05/18 12:11:49;;;;;;;;;;;;;;;28.72;29.19;96936.19;5074434;28;20477;-72
2022/05/18 12:14:57;;;;;;;;;;;;;;;28.65;30.17;96936.69;5071964;28;19969;-71
2022/05/18 12:17:27;;;;;;;;;;;;;;;28.53;29.91;96931.97;5072405;28;19981;-72
2022/05/18 12:19:54;;;;;;;;;;;;;;;28.65;30.19;96925.13;5074473;28;20355;-72
2022/05/18 12:22:32;;;;;;;;;;;;;;;28.62;29.47;96928.44;5069707;28;19967;-72
2022/05/18 12:24:58;;;;;;;;;;;;;;;28.73;31.13;96935.88;5074139;28;19948;-72
2022/05/18 12:27:25;;;;;;;;;;;;;;;28.98;31.37;96946.06;5070520;28;20335;-72
2022/05/18 12:29:53;;;;;;;;;;;;;;;28.90;28.09;96918.00;5063742;28;19961;-73
2022/05/18 12:32:19;;;;;;;;;;;;;;;28.80;28.99;96929.19;5072865;28;19951;-72
2022/05/18 12:35:01;;;;;;;;;;;;;;;28.65;28.72;96917.03;5073870;28;19970;-72
2022/05/18 12:37:32;;;;;;;;;;;;;;;28.50;28.71;96913.72;5071175;28;20324;-71
2022/05/18 12:40:25;;;;;;;;;;;;;;;28.43;29.01;96912.59;5068210;28;19966;-72
2022/05/18 12:42:56;;;;;;;;;;;;;;;28.59;30.46;96916.41;5072556;28;19955;-73
2022/05/18 12:45:55;;;;;;;;;;;;;;;28.83;28.20;96912.31;5060577;28;19955;-72
2022/05/18 12:48:40;;;;;;;;;;;;;;;28.76;28.65;96922.84;5071832;28;19965;-72
2022/05/18 12:51:30;;;;;;;;;;;;;;;28.66;29.29;96923.97;5071614;28;19953;-72
2022/05/18 12:53:56;;;;;;;;;;;;;;;28.77;28.27;96917.13;5053452;28;19984;-72
2022/05/18 12:56:24;;;;;;;;;;;;;;;28.74;27.62;96918.53;5064026;28;20419;-72
2022/05/18 12:58:58;;;;;;;;;;;;;;;28.70;26.94;96917.59;5069247;28;19965;-72
2022/05/18 13:01:25;;;;;;;;;;;;;;;28.64;27.60;96918.13;5069741;28;19958;-72
2022/05/18 13:03:54;;;;;;;;;;;;;;;28.74;28.38;96915.84;5058277;28;19959;-73
2022/05/18 13:06:39;;;;;;;;;;;;;;;28.67;26.41;96912.09;5058683;28;19980;-72
2022/05/18 13:09:23;;;;;;;;;;;;;;;28.64;27.07;96902.75;5060632;28;19986;-72
2022/05/18 13:11:58;;;;;;;;;;;;;;;28.75;27.61;96897.75;5055297;28;19962;-72
2022/05/18 13:14:35;;;;;;;;;;;;;;;28.69;25.93;96894.44;5063244;28;20357;-72
2022/05/18 13:17:13;;;;;;;;;;;;;;;28.54;27.22;96906.56;5072609;28;19957;-72
2022/05/18 13:19:44;;;;;;;;;;;;;;;28.46;26.75;96899.28;5071057;28;20394;-72